createdAt,value
2022-12-16T00:00:34.200Z,28.45
2022-12-16T00:01:36.577Z,29.73
2022-12-16T00:02:38.988Z,33.00
2022-12-16T00:03:42.610Z,29.00
2022-12-16T00:04:44.833Z,29.20
2022-12-16T00:05:48.891Z,24.23
2022-12-16T00:06:51.190Z,28.92
2022-12-16T00:07:55.423Z,29.23
2022-12-16T00:08:58.430Z,26.38
2022-12-16T00:10:00.937Z,25.55
2022-12-16T00:11:03.817Z,27.95
2022-12-16T00:12:06.171Z,26.60
2022-12-16T00:13:10.665Z,25.42
2022-12-16T00:14:13.072Z,26.02
2022-12-16T00:15:15.519Z,24.85
2022-12-16T00:16:19.586Z,25.75
2022-12-16T00:17:22.091Z,29.73
2022-12-16T00:18:24.882Z,27.05
2022-12-16T00:19:27.085Z,27.30
2022-12-16T00:20:29.378Z,31.58
2022-12-16T00:21:31.590Z,29.42
2022-12-16T00:22:33.808Z,30.30
2022-12-16T00:23:36.810Z,32.70
2022-12-16T00:24:39.393Z,35.17
2022-12-16T00:25:45.555Z,29.83
2022-12-16T00:26:47.912Z,32.65
2022-12-16T00:27:50.127Z,30.23
2022-12-16T00:28:55.480Z,31.33
2022-12-16T00:29:57.776Z,31.48
2022-12-16T00:31:00.132Z,32.45
2022-12-16T00:32:02.905Z,25.92
2022-12-16T00:33:05.932Z,30.48
2022-12-16T00:34:08.243Z,32.60
2022-12-16T00:35:10.442Z,32.85
2022-12-16T00:36:12.773Z,28.33
2022-12-16T00:37:15.059Z,30.48
2022-12-16T00:38:17.581Z,36.70
2022-12-16T00:39:19.869Z,30.33
2022-12-16T00:40:22.192Z,33.53
2022-12-16T00:41:24.515Z,26.58
2022-12-16T00:42:26.756Z,31.77
2022-12-16T00:43:29.240Z,31.73
2022-12-16T00:44:31.598Z,27.73
2022-12-16T00:45:34.357Z,34.13
2022-12-16T00:46:36.619Z,36.33
2022-12-16T00:47:42.559Z,27.33
2022-12-16T00:48:46.255Z,34.20
2022-12-16T00:49:48.456Z,27.75
2022-12-16T00:50:52.290Z,36.03
2022-12-16T00:51:57.741Z,29.65
2022-12-16T00:53:00.249Z,29.13
2022-12-16T00:54:02.447Z,31.65
2022-12-16T00:55:04.919Z,30.50
2022-12-16T00:56:12.170Z,23.75
2022-12-16T00:57:14.485Z,27.98
2022-12-16T00:58:17.180Z,28.77
2022-12-16T00:59:19.400Z,28.10
2022-12-16T01:00:22.535Z,23.77
2022-12-16T01:01:24.919Z,25.48
2022-12-16T01:02:27.404Z,26.02
2022-12-16T01:03:29.940Z,30.80
2022-12-16T01:04:32.344Z,26.75
2022-12-16T01:05:34.726Z,28.52
2022-12-16T01:06:36.992Z,24.35
2022-12-16T01:07:39.302Z,25.92
2022-12-16T01:08:48.453Z,27.58
2022-12-16T01:09:51.089Z,31.33
2022-12-16T01:10:56.688Z,28.17
2022-12-16T01:11:59.064Z,28.13
2022-12-16T01:13:01.399Z,29.60
2022-12-16T01:14:03.724Z,35.80
2022-12-16T01:15:08.611Z,28.17
2022-12-16T01:16:11.013Z,32.03
2022-12-16T01:17:13.212Z,29.25
2022-12-16T01:18:16.272Z,29.23
2022-12-16T01:19:18.545Z,24.95
2022-12-16T01:20:20.767Z,24.27
2022-12-16T01:21:23.184Z,26.85
2022-12-16T01:22:25.386Z,28.30
2022-12-16T01:23:27.581Z,26.88
2022-12-16T01:24:29.885Z,26.70
2022-12-16T01:25:32.108Z,23.40
2022-12-16T01:26:34.369Z,29.58
2022-12-16T01:27:36.641Z,25.60
2022-12-16T01:28:38.843Z,25.52
2022-12-16T01:29:41.675Z,26.67
2022-12-16T01:30:43.932Z,30.05
2022-12-16T01:31:46.227Z,27.90
2022-12-16T01:32:48.556Z,30.80
2022-12-16T01:33:51.216Z,34.70
2022-12-16T01:34:55.076Z,31.83
2022-12-16T01:36:06.816Z,32.08
2022-12-16T01:37:12.912Z,26.25
2022-12-16T01:38:15.709Z,22.55
2022-12-16T01:39:17.964Z,28.75
2022-12-16T01:40:23.334Z,27.88
2022-12-16T01:41:25.692Z,29.33
2022-12-16T01:42:31.134Z,30.63
2022-12-16T01:43:36.608Z,29.02
2022-12-16T01:44:39.185Z,26.30
2022-12-16T01:45:41.528Z,30.77
2022-12-16T01:46:49.831Z,29.58
2022-12-16T01:47:56.274Z,27.63
2022-12-16T01:49:06.327Z,27.00
2022-12-16T01:50:16.003Z,26.83
2022-12-16T01:51:38.587Z,26.58
2022-12-16T01:52:48.641Z,25.58
2022-12-16T01:53:53.872Z,23.23
2022-12-16T01:55:09.480Z,29.67
2022-12-16T01:56:16.231Z,23.83
2022-12-16T01:57:24.376Z,27.00
2022-12-16T01:58:31.933Z,28.13
2022-12-16T01:59:38.386Z,23.10
2022-12-16T02:00:41.386Z,24.85
2022-12-16T02:01:44.295Z,21.40
2022-12-16T02:02:47.816Z,22.00
2022-12-16T02:03:54.398Z,26.60
2022-12-16T02:05:15.294Z,23.27
2022-12-16T02:06:17.700Z,22.50
2022-12-16T02:07:19.922Z,23.83
2022-12-16T02:08:22.791Z,23.65
2022-12-16T02:09:25.044Z,21.85
2022-12-16T02:10:56.313Z,24.40
2022-12-16T02:12:31.409Z,26.00
2022-12-16T02:14:01.557Z,25.92
2022-12-16T02:15:26.963Z,21.38
2022-12-16T02:16:34.147Z,23.70
2022-12-16T02:17:43.197Z,25.00
2022-12-16T02:19:17.324Z,23.65
2022-12-16T02:20:40.646Z,20.95
2022-12-16T02:22:05.778Z,22.20
2022-12-16T02:23:45.206Z,23.55
2022-12-16T02:25:26.179Z,26.58
2022-12-16T02:26:49.328Z,22.95
2022-12-16T02:28:18.969Z,21.35
2022-12-16T02:30:03.648Z,29.75
2022-12-16T02:31:17.970Z,24.20
2022-12-16T02:32:28.657Z,18.00
2022-12-16T02:33:43.960Z,28.45
2022-12-16T02:35:07.740Z,28.90
2022-12-16T02:36:38.379Z,28.58
2022-12-16T02:37:49.170Z,24.67
2022-12-16T02:39:02.376Z,21.65
2022-12-16T02:40:28.784Z,26.55
2022-12-16T02:41:34.260Z,23.70
2022-12-16T02:42:46.196Z,27.80
2022-12-16T02:44:06.885Z,28.52
2022-12-16T02:45:36.272Z,25.25
2022-12-16T02:46:43.295Z,31.50
2022-12-16T02:47:46.698Z,22.60
2022-12-16T02:48:49.052Z,22.60
2022-12-16T02:49:53.562Z,28.38
2022-12-16T02:50:55.930Z,30.33
2022-12-16T02:52:00.936Z,24.80
2022-12-16T02:53:04.306Z,29.35
2022-12-16T02:54:09.645Z,26.65
2022-12-16T02:55:12.692Z,27.80
2022-12-16T02:56:35.932Z,24.10
2022-12-16T02:58:03.003Z,26.10
2022-12-16T02:59:48.353Z,26.15
2022-12-16T03:00:55.970Z,30.52
2022-12-16T03:02:12.493Z,26.42
2022-12-16T03:03:24.305Z,23.40
2022-12-16T03:04:36.969Z,31.80
2022-12-16T03:05:45.674Z,28.17
2022-12-16T03:06:50.707Z,29.83
2022-12-16T03:07:56.465Z,28.77
2022-12-16T03:09:01.989Z,26.10
2022-12-16T03:10:11.793Z,31.58
2022-12-16T03:11:14.693Z,30.52
2022-12-16T03:12:20.067Z,31.67
2022-12-16T03:13:23.359Z,29.55
2022-12-16T03:14:31.617Z,28.95
2022-12-16T03:15:35.432Z,29.05
2022-12-16T03:16:37.776Z,28.92
2022-12-16T03:17:40.643Z,25.30
2022-12-16T03:18:46.137Z,25.63
2022-12-16T03:19:56.559Z,26.90
2022-12-16T03:21:07.519Z,26.40
2022-12-16T03:22:16.560Z,29.48
2022-12-16T03:23:28.025Z,24.88
2022-12-16T03:24:30.560Z,26.13
2022-12-16T03:25:35.681Z,27.17
2022-12-16T03:26:53.950Z,27.73
2022-12-16T03:28:33.992Z,23.05
2022-12-16T03:29:57.332Z,27.52
2022-12-16T03:31:26.455Z,26.27
2022-12-16T03:32:28.619Z,25.25
2022-12-16T03:33:40.099Z,26.15
2022-12-16T03:34:48.547Z,25.85
2022-12-16T03:36:02.256Z,23.55
2022-12-16T03:37:07.848Z,28.40
2022-12-16T03:38:12.350Z,23.85
2022-12-16T03:39:16.789Z,26.80
2022-12-16T03:40:20.450Z,26.02
2022-12-16T03:41:24.223Z,21.35
2022-12-16T03:42:26.997Z,25.70
2022-12-16T03:43:29.839Z,21.35
2022-12-16T03:44:35.016Z,23.02
2022-12-16T03:45:40.338Z,19.90
2022-12-16T03:46:42.738Z,21.48
2022-12-16T03:47:52.278Z,22.40
2022-12-16T03:48:54.547Z,21.50
2022-12-16T03:49:56.802Z,24.02
2022-12-16T03:50:59.222Z,22.80
2022-12-16T03:52:01.447Z,21.60
2022-12-16T03:53:05.357Z,21.30
2022-12-16T03:54:07.585Z,26.48
2022-12-16T03:55:09.794Z,20.33
2022-12-16T03:56:12.654Z,26.17
2022-12-16T03:57:15.745Z,22.08
2022-12-16T03:58:18.508Z,26.08
2022-12-16T03:59:20.899Z,20.27
2022-12-16T04:00:23.521Z,19.38
2022-12-16T04:01:26.271Z,26.42
2022-12-16T04:02:28.668Z,18.27
2022-12-16T04:03:31.302Z,21.10
2022-12-16T04:04:33.912Z,22.10
2022-12-16T04:05:36.191Z,23.13
2022-12-16T04:06:38.448Z,23.35
2022-12-16T04:07:40.833Z,32.08
2022-12-16T04:08:43.030Z,26.80
2022-12-16T04:09:45.329Z,26.48
2022-12-16T04:11:10.171Z,25.90
2022-12-16T04:12:30.996Z,27.38
2022-12-16T04:13:51.920Z,27.02
2022-12-16T04:15:12.553Z,22.35
2022-12-16T04:16:34.987Z,23.88
2022-12-16T04:17:55.905Z,25.52
2022-12-16T04:19:17.085Z,19.75
2022-12-16T04:20:38.570Z,21.60
2022-12-16T04:21:59.560Z,24.05
2022-12-16T04:23:20.974Z,20.35
2022-12-16T04:24:26.936Z,22.63
2022-12-16T04:25:35.754Z,22.85
2022-12-16T04:26:56.405Z,24.13
2022-12-16T04:27:59.087Z,27.25
2022-12-16T04:29:01.336Z,29.50
2022-12-16T04:30:20.040Z,25.55
2022-12-16T04:31:22.523Z,26.80
2022-12-16T04:32:25.667Z,25.33
2022-12-16T04:33:46.940Z,28.98
2022-12-16T04:34:49.767Z,31.50
2022-12-16T04:36:10.846Z,24.88
2022-12-16T04:37:31.880Z,25.13
2022-12-16T04:38:52.601Z,23.25
2022-12-16T04:40:13.337Z,24.88
2022-12-16T04:41:34.690Z,28.48
2022-12-16T04:42:55.609Z,27.98
2022-12-16T04:44:16.668Z,25.60
2022-12-16T04:45:38.182Z,29.23
2022-12-16T04:46:58.956Z,33.67
2022-12-16T04:48:19.996Z,31.38
2022-12-16T04:49:41.058Z,30.17
2022-12-16T04:51:02.872Z,27.08
2022-12-16T04:52:24.168Z,26.77
2022-12-16T04:53:45.143Z,24.05
2022-12-16T04:55:05.767Z,21.33
2022-12-16T04:56:26.924Z,25.63
2022-12-16T04:57:47.983Z,27.10
2022-12-16T04:59:08.983Z,26.27
2022-12-16T05:00:30.443Z,20.80
2022-12-16T05:01:51.521Z,28.23
2022-12-16T05:03:12.560Z,27.77
2022-12-16T05:04:33.681Z,35.47
2022-12-16T05:05:54.703Z,24.05
2022-12-16T05:07:15.687Z,29.10
2022-12-16T05:08:36.306Z,33.85
2022-12-16T05:09:57.530Z,33.33
2022-12-16T05:11:18.650Z,29.45
2022-12-16T05:12:39.596Z,24.67
2022-12-16T05:14:00.409Z,27.90
2022-12-16T05:15:21.371Z,30.55
2022-12-16T05:16:42.231Z,27.13
2022-12-16T05:18:03.254Z,24.02
2022-12-16T05:19:29.948Z,22.23
2022-12-16T05:20:52.285Z,20.13
2022-12-16T05:22:13.059Z,22.27
2022-12-16T05:23:33.857Z,21.60
2022-12-16T05:24:54.904Z,26.75
2022-12-16T05:26:15.963Z,21.70
2022-12-16T05:27:36.871Z,24.90
2022-12-16T05:28:57.570Z,27.40
2022-12-16T05:30:18.580Z,23.63
2022-12-16T05:31:39.646Z,25.52
2022-12-16T05:33:00.492Z,36.35
2022-12-16T05:34:21.573Z,21.77
2022-12-16T05:35:42.347Z,27.50
2022-12-16T05:37:03.427Z,24.95
2022-12-16T05:38:24.493Z,21.38
2022-12-16T05:39:45.380Z,29.02
2022-12-16T05:41:06.062Z,24.05
2022-12-16T05:42:27.202Z,23.73
2022-12-16T05:43:48.472Z,23.48
2022-12-16T05:45:09.273Z,22.52
2022-12-16T05:46:30.438Z,18.50
2022-12-16T05:47:51.696Z,23.73
2022-12-16T05:49:12.456Z,21.80
2022-12-16T05:50:33.420Z,26.77
2022-12-16T05:52:02.561Z,26.05
2022-12-16T05:53:23.591Z,22.95
2022-12-16T05:54:44.669Z,28.63
2022-12-16T05:56:05.402Z,24.65
2022-12-16T05:57:26.166Z,22.38
2022-12-16T05:58:47.784Z,21.27
2022-12-16T06:00:08.748Z,22.08
2022-12-16T06:01:35.319Z,23.80
2022-12-16T06:02:56.218Z,24.80
2022-12-16T06:04:18.098Z,20.83
2022-12-16T06:05:38.796Z,20.77
2022-12-16T06:07:00.262Z,26.38
2022-12-16T06:08:20.983Z,23.52
2022-12-16T06:09:42.294Z,24.65
2022-12-16T06:11:03.039Z,28.00
2022-12-16T06:12:24.112Z,21.50
2022-12-16T06:13:45.191Z,31.27
2022-12-16T06:15:06.222Z,28.65
2022-12-16T06:16:27.635Z,25.10
2022-12-16T06:17:48.835Z,23.52
2022-12-16T06:19:09.644Z,28.95
2022-12-16T06:20:30.441Z,24.65
2022-12-16T06:21:51.567Z,24.23
2022-12-16T06:23:13.574Z,23.08
2022-12-16T06:24:34.520Z,24.25
2022-12-16T06:25:55.547Z,21.73
2022-12-16T06:27:16.264Z,25.40
2022-12-16T06:28:37.211Z,32.65
2022-12-16T06:29:58.159Z,26.50
2022-12-16T06:31:19.257Z,24.75
2022-12-16T06:32:40.125Z,22.73
2022-12-16T06:34:27.517Z,27.30
2022-12-16T06:35:48.562Z,30.40
2022-12-16T06:37:09.528Z,24.50
2022-12-16T06:38:30.422Z,19.75
2022-12-16T06:39:53.085Z,27.42
2022-12-16T06:41:14.162Z,29.85
2022-12-16T06:42:35.127Z,25.20
2022-12-16T06:43:55.924Z,26.33
2022-12-16T06:45:17.000Z,26.52
2022-12-16T06:46:37.978Z,25.63
2022-12-16T06:48:07.393Z,25.27
2022-12-16T06:49:28.231Z,22.65
2022-12-16T06:50:53.648Z,20.75
2022-12-16T06:52:16.765Z,26.60
2022-12-16T06:53:37.753Z,25.27
2022-12-16T06:54:58.442Z,18.30
2022-12-16T06:56:19.595Z,21.65
2022-12-16T06:57:40.680Z,24.90
2022-12-16T06:59:01.307Z,19.98
2022-12-16T07:00:23.582Z,24.77
2022-12-16T07:01:44.698Z,23.80
2022-12-16T07:03:05.766Z,25.00
2022-12-16T07:04:26.531Z,22.00
2022-12-16T07:05:47.371Z,17.30
2022-12-16T07:07:08.488Z,24.50
2022-12-16T07:08:29.231Z,22.17
2022-12-16T07:09:50.247Z,23.27
2022-12-16T07:11:16.622Z,20.45
2022-12-16T07:12:38.131Z,24.70
2022-12-16T07:13:59.096Z,22.40
2022-12-16T07:15:20.319Z,25.92
2022-12-16T07:16:41.182Z,27.23
2022-12-16T07:18:04.045Z,34.30
2022-12-16T07:19:24.877Z,32.45
2022-12-16T07:20:45.529Z,29.35
2022-12-16T07:22:06.399Z,35.20
2022-12-16T07:23:27.628Z,32.22
2022-12-16T07:24:48.320Z,27.73
2022-12-16T07:26:09.378Z,30.63
2022-12-16T07:27:30.287Z,23.55
2022-12-16T07:28:51.055Z,25.58
2022-12-16T07:30:11.895Z,23.80
2022-12-16T07:31:32.675Z,23.95
2022-12-16T07:32:53.675Z,25.67
2022-12-16T07:34:14.920Z,23.63
2022-12-16T07:35:35.989Z,26.15
2022-12-16T07:36:57.218Z,28.70
2022-12-16T07:38:18.021Z,26.50
2022-12-16T07:39:38.628Z,26.85
2022-12-16T07:40:59.868Z,27.05
2022-12-16T07:42:20.543Z,25.70
2022-12-16T07:43:41.761Z,26.80
2022-12-16T07:45:02.586Z,29.85
2022-12-16T07:46:23.574Z,27.75
2022-12-16T07:47:44.420Z,23.65
2022-12-16T07:49:05.715Z,28.88
2022-12-16T07:50:27.331Z,25.63
2022-12-16T07:51:48.091Z,24.10
2022-12-16T07:53:15.679Z,22.45
2022-12-16T07:54:36.500Z,21.83
2022-12-16T07:55:57.403Z,30.30
2022-12-16T07:57:18.200Z,22.48
2022-12-16T07:58:39.172Z,24.13
2022-12-16T08:00:00.349Z,30.73
2022-12-16T08:01:21.678Z,28.23
2022-12-16T08:02:43.074Z,32.58
2022-12-16T08:04:04.354Z,23.92
2022-12-16T08:05:25.528Z,23.45
2022-12-16T08:06:46.350Z,24.85
2022-12-16T08:08:07.373Z,22.45
2022-12-16T08:09:28.669Z,19.10
2022-12-16T08:10:49.782Z,20.67
2022-12-16T08:12:10.653Z,30.75
2022-12-16T08:13:31.431Z,27.48
2022-12-16T08:14:52.699Z,24.55
2022-12-16T08:16:14.200Z,26.63
2022-12-16T08:17:35.077Z,29.55
2022-12-16T08:18:56.137Z,26.20
2022-12-16T08:20:17.218Z,24.65
2022-12-16T08:21:38.136Z,26.17
2022-12-16T08:22:59.571Z,22.98
2022-12-16T08:24:55.971Z,29.95
2022-12-16T08:26:17.034Z,23.52
2022-12-16T08:27:37.877Z,23.83
2022-12-16T08:29:05.475Z,22.42
2022-12-16T08:30:34.803Z,22.73
2022-12-16T08:31:55.935Z,23.98
2022-12-16T08:33:19.724Z,22.38
2022-12-16T08:34:51.808Z,25.42
2022-12-16T08:36:15.795Z,26.00
2022-12-16T08:37:37.106Z,22.85
2022-12-16T08:38:58.136Z,24.67
2022-12-16T08:40:34.928Z,23.40
2022-12-16T08:41:57.088Z,24.17
2022-12-16T08:43:17.994Z,24.52
2022-12-16T08:44:39.056Z,33.58
2022-12-16T08:46:00.826Z,31.15
2022-12-16T08:47:22.044Z,31.58
2022-12-16T08:48:43.930Z,36.90
2022-12-16T08:50:04.731Z,29.25
2022-12-16T08:51:25.564Z,34.95
2022-12-16T08:52:46.725Z,26.27
2022-12-16T08:54:07.452Z,29.23
2022-12-16T08:55:29.939Z,28.27
2022-12-16T08:56:50.967Z,27.70
2022-12-16T08:58:13.447Z,29.60
2022-12-16T08:59:34.583Z,31.95
2022-12-16T09:00:55.250Z,28.77
2022-12-16T09:02:16.949Z,24.08
2022-12-16T09:03:38.606Z,23.48
2022-12-16T09:04:59.639Z,24.63
2022-12-16T09:06:20.599Z,20.70
2022-12-16T09:07:41.672Z,28.35
2022-12-16T09:09:02.545Z,26.30
2022-12-16T09:10:24.596Z,22.05
2022-12-16T09:11:45.926Z,28.95
2022-12-16T09:13:06.785Z,31.52
2022-12-16T09:14:27.795Z,25.10
2022-12-16T09:15:48.720Z,27.80
2022-12-16T09:17:09.596Z,25.00
2022-12-16T09:18:30.864Z,21.77
2022-12-16T09:19:51.622Z,25.02
2022-12-16T09:21:14.932Z,24.02
2022-12-16T09:22:35.946Z,24.15
2022-12-16T09:23:56.795Z,21.77
2022-12-16T09:25:17.889Z,21.48
2022-12-16T09:26:39.095Z,23.00
2022-12-16T09:28:00.150Z,23.92
2022-12-16T09:29:21.149Z,27.83
2022-12-16T09:30:42.382Z,24.25
2022-12-16T09:32:02.971Z,26.00
2022-12-16T09:33:23.867Z,24.75
2022-12-16T09:34:52.244Z,26.70
2022-12-16T09:36:13.543Z,25.58
2022-12-16T09:37:34.295Z,25.88
2022-12-16T09:38:55.173Z,23.50
2022-12-16T09:40:16.203Z,25.33
2022-12-16T09:41:55.621Z,24.00
2022-12-16T09:43:20.256Z,22.77
2022-12-16T09:45:21.558Z,26.45
2022-12-16T09:47:23.134Z,22.73
2022-12-16T09:48:53.660Z,26.10
2022-12-16T09:50:15.568Z,24.48
2022-12-16T09:51:36.929Z,24.50
2022-12-16T09:53:12.011Z,24.98
2022-12-16T09:54:37.926Z,21.77
2022-12-16T09:56:01.387Z,23.67
2022-12-16T09:57:23.249Z,25.20
2022-12-16T09:58:47.930Z,21.83
2022-12-16T10:00:16.418Z,20.95
2022-12-16T10:01:39.198Z,24.42
2022-12-16T10:03:06.550Z,27.13
2022-12-16T10:04:28.444Z,19.58
2022-12-16T10:06:02.564Z,24.95
2022-12-16T10:07:26.879Z,23.38
2022-12-16T10:09:43.751Z,22.17
2022-12-16T10:11:20.020Z,19.08
2022-12-16T10:13:20.673Z,24.38
2022-12-16T10:14:53.023Z,19.90
2022-12-16T10:16:22.793Z,22.70
2022-12-16T10:17:44.603Z,20.38
2022-12-16T10:19:24.483Z,22.02
2022-12-16T10:21:05.877Z,21.60
2022-12-16T10:22:54.614Z,26.10
2022-12-16T10:24:23.082Z,21.20
2022-12-16T10:26:16.227Z,28.77
2022-12-16T10:27:46.618Z,24.05
2022-12-16T10:29:11.178Z,29.25
2022-12-16T10:30:34.921Z,27.98
2022-12-16T10:31:56.113Z,24.45
2022-12-16T10:33:18.703Z,28.48
2022-12-16T10:34:49.273Z,24.13
2022-12-16T10:36:11.446Z,23.00
2022-12-16T10:37:47.636Z,21.23
2022-12-16T10:39:19.927Z,28.67
2022-12-16T10:40:45.509Z,20.63
2022-12-16T10:42:10.339Z,19.77
2022-12-16T10:43:39.260Z,25.20
2022-12-16T10:45:13.274Z,25.85
2022-12-16T10:46:39.940Z,31.13
2022-12-16T10:48:01.220Z,24.30
2022-12-16T10:49:22.188Z,26.55
2022-12-16T10:50:43.452Z,24.00
2022-12-16T10:52:08.875Z,21.10
2022-12-16T10:53:36.766Z,26.83
2022-12-16T10:55:23.691Z,28.52
2022-12-16T10:57:07.196Z,26.35
2022-12-16T10:58:47.650Z,30.77
2022-12-16T11:00:08.440Z,24.25
2022-12-16T11:01:55.975Z,30.75
2022-12-16T11:03:40.428Z,31.40
2022-12-16T11:05:01.842Z,31.23
2022-12-16T11:06:22.514Z,26.65
2022-12-16T11:07:52.645Z,31.45
2022-12-16T11:09:13.934Z,23.77
2022-12-16T11:10:50.452Z,20.25
2022-12-16T11:12:12.094Z,29.98
2022-12-16T11:13:37.643Z,27.05
2022-12-16T11:15:28.615Z,27.05
2022-12-16T11:16:45.108Z,24.63
2022-12-16T11:18:25.314Z,29.20
2022-12-16T11:19:48.321Z,30.25
2022-12-16T11:21:34.980Z,31.10
2022-12-16T11:22:56.136Z,34.97
2022-12-16T11:24:54.472Z,31.00
2022-12-16T11:26:34.510Z,36.42
2022-12-16T11:27:57.177Z,36.13
2022-12-16T11:29:37.386Z,37.92
2022-12-16T11:30:58.490Z,39.25
2022-12-16T11:32:42.601Z,38.53
2022-12-16T11:34:04.514Z,34.55
2022-12-16T11:35:33.194Z,31.45
2022-12-16T11:36:55.451Z,39.65
2022-12-16T11:38:17.416Z,34.22
2022-12-16T11:39:40.717Z,33.53
2022-12-16T11:41:02.057Z,35.35
2022-12-16T11:42:25.052Z,40.55
2022-12-16T11:43:47.966Z,34.58
2022-12-16T11:45:14.039Z,35.28
2022-12-16T11:46:45.783Z,38.83
2022-12-16T11:48:29.420Z,34.60
2022-12-16T11:49:51.731Z,33.38
2022-12-16T11:51:16.316Z,37.47
2022-12-16T11:52:39.273Z,31.90
2022-12-16T11:54:11.251Z,33.28
2022-12-16T11:57:41.549Z,32.72
2022-12-16T11:59:08.869Z,38.25
2022-12-16T12:00:35.054Z,39.10
2022-12-16T12:02:03.574Z,34.78
2022-12-16T12:03:35.772Z,43.22
2022-12-16T12:05:04.265Z,38.30
2022-12-16T12:06:28.581Z,33.53
2022-12-16T12:08:06.512Z,32.65
2022-12-16T12:09:35.078Z,33.60
2022-12-16T12:11:06.188Z,36.65
2022-12-16T12:12:48.057Z,37.50
2022-12-16T12:14:37.905Z,32.50
2022-12-16T12:16:01.744Z,36.30
2022-12-16T12:17:50.823Z,36.53
2022-12-16T12:19:43.645Z,34.83
2022-12-16T12:21:30.068Z,43.88
2022-12-16T12:22:54.985Z,43.72
2022-12-16T12:24:39.267Z,41.20
2022-12-16T12:26:10.664Z,44.58
2022-12-16T12:27:34.277Z,42.00
2022-12-16T12:29:14.681Z,42.92
2022-12-16T12:30:38.620Z,41.15
2022-12-16T12:32:20.552Z,42.72
2022-12-16T12:34:08.760Z,44.80
2022-12-16T12:35:59.255Z,44.00
2022-12-16T12:37:27.486Z,42.80
2022-12-16T12:38:58.741Z,44.95
2022-12-16T12:40:47.291Z,47.58
2022-12-16T12:42:32.039Z,35.60
2022-12-16T12:44:17.896Z,39.13
2022-12-16T12:46:05.590Z,32.25
2022-12-16T12:47:28.967Z,40.05
2022-12-16T12:49:24.749Z,33.17
2022-12-16T12:51:03.810Z,34.25
2022-12-16T12:52:49.043Z,35.35
2022-12-16T12:54:17.480Z,40.55
2022-12-16T12:55:50.185Z,38.20
2022-12-16T12:57:11.990Z,32.47
2022-12-16T12:58:35.483Z,34.42
2022-12-16T13:00:04.184Z,36.22
2022-12-16T13:01:27.077Z,32.90
2022-12-16T13:02:54.608Z,33.17
2022-12-16T13:04:23.027Z,30.23
2022-12-16T13:05:53.583Z,30.58
2022-12-16T13:07:15.169Z,25.95
2022-12-16T13:09:10.505Z,31.52
2022-12-16T13:10:40.202Z,32.28
2022-12-16T13:12:25.493Z,31.85
2022-12-16T13:13:52.331Z,27.60
2022-12-16T13:15:22.756Z,36.08
2022-12-16T13:17:02.591Z,32.58
2022-12-16T13:18:23.813Z,35.90
2022-12-16T13:19:50.340Z,32.15
2022-12-16T13:21:14.780Z,33.15
2022-12-16T13:22:50.212Z,38.70
2022-12-16T13:24:11.061Z,40.15
2022-12-16T13:26:12.853Z,38.60
2022-12-16T13:27:35.199Z,35.90
2022-12-16T13:29:00.868Z,40.42
2022-12-16T13:30:30.763Z,41.40
2022-12-16T13:31:52.034Z,44.08
2022-12-16T13:33:43.734Z,36.30
2022-12-16T13:35:04.891Z,38.20
2022-12-16T13:36:26.831Z,33.67
2022-12-16T13:37:47.975Z,39.22
2022-12-16T13:39:11.908Z,34.25
2022-12-16T13:40:39.198Z,33.55
2022-12-16T13:41:59.954Z,34.17
2022-12-16T13:43:23.831Z,36.40
2022-12-16T13:45:02.924Z,33.30
2022-12-16T13:46:23.983Z,30.70
2022-12-16T13:47:50.080Z,35.33
2022-12-16T13:49:11.101Z,30.50
2022-12-16T13:50:55.266Z,37.80
2022-12-16T13:52:20.435Z,42.78
2022-12-16T13:53:46.709Z,69.65
2022-12-16T13:55:20.039Z,72.97
2022-12-16T13:56:58.163Z,103.13
2022-12-16T13:58:24.194Z,93.05
2022-12-16T13:59:49.567Z,83.63
2022-12-16T14:01:18.055Z,66.05
2022-12-16T14:02:41.535Z,66.38
2022-12-16T14:04:07.858Z,80.25
2022-12-16T14:05:42.732Z,78.93
2022-12-16T14:07:03.931Z,60.10
2022-12-16T14:08:30.098Z,62.22
2022-12-16T14:09:56.507Z,65.45
2022-12-16T14:11:21.604Z,61.00
2022-12-16T14:13:02.355Z,58.50
2022-12-16T14:14:53.779Z,47.65
2022-12-16T14:16:27.726Z,50.10
2022-12-16T14:17:58.585Z,46.78
2022-12-16T14:19:30.080Z,45.05
2022-12-16T14:21:06.447Z,42.15
2022-12-16T14:23:08.456Z,39.53
2022-12-16T14:24:58.959Z,40.10
2022-12-16T14:26:21.454Z,40.42
2022-12-16T14:27:43.258Z,48.72
2022-12-16T14:29:06.148Z,40.42
2022-12-16T14:30:42.548Z,42.47
2022-12-16T14:32:03.741Z,41.97
2022-12-16T14:33:45.754Z,36.47
2022-12-16T14:35:06.628Z,30.92
2022-12-16T14:36:42.982Z,33.47
2022-12-16T14:38:03.975Z,34.42
2022-12-16T14:39:41.938Z,37.92
2022-12-16T14:41:10.180Z,40.97
2022-12-16T14:42:47.901Z,35.35
2022-12-16T14:44:39.682Z,33.05
2022-12-16T14:46:07.898Z,33.30
2022-12-16T14:47:39.694Z,32.05
2022-12-16T14:49:05.205Z,36.58
2022-12-16T14:50:46.049Z,33.70
2022-12-16T14:52:06.841Z,33.13
2022-12-16T14:53:42.298Z,28.05
2022-12-16T14:55:04.809Z,36.78
2022-12-16T14:56:38.684Z,39.63
2022-12-16T14:57:59.698Z,32.67
2022-12-16T14:59:34.888Z,38.72
2022-12-16T15:00:57.991Z,35.63
2022-12-16T15:02:44.821Z,30.38
2022-12-16T15:04:07.357Z,30.25
2022-12-16T15:05:29.248Z,34.05
2022-12-16T15:06:56.804Z,30.98
2022-12-16T15:08:18.567Z,34.58
2022-12-16T15:09:52.212Z,32.30
2022-12-16T15:11:13.235Z,35.47
2022-12-16T15:12:41.200Z,34.92
2022-12-16T15:14:04.050Z,31.70
2022-12-16T15:15:32.235Z,28.50
2022-12-16T15:16:55.787Z,31.15
2022-12-16T15:18:19.235Z,33.92
2022-12-16T15:19:42.678Z,30.55
2022-12-16T15:21:10.567Z,36.22
2022-12-16T15:22:35.586Z,37.45
2022-12-16T15:24:02.586Z,38.58
2022-12-16T15:25:24.116Z,35.58
2022-12-16T15:26:48.031Z,34.08
2022-12-16T15:28:16.053Z,39.70
2022-12-16T15:29:47.662Z,35.22
2022-12-16T15:31:08.511Z,36.70
2022-12-16T15:32:44.311Z,38.53
2022-12-16T15:34:04.994Z,38.92
2022-12-16T15:35:26.966Z,37.85
2022-12-16T15:36:50.378Z,39.22
2022-12-16T15:38:11.095Z,35.13
2022-12-16T15:39:45.633Z,42.65
2022-12-16T15:41:10.167Z,34.08
2022-12-16T15:42:47.783Z,49.97
2022-12-16T15:44:10.115Z,51.95
2022-12-16T15:45:43.690Z,53.30
2022-12-16T15:47:07.150Z,49.53
2022-12-16T15:48:36.479Z,44.58
2022-12-16T15:50:03.783Z,47.65
2022-12-16T15:52:03.991Z,39.33
2022-12-16T15:53:54.402Z,38.35
2022-12-16T15:55:15.586Z,39.83
2022-12-16T15:56:41.942Z,33.78
2022-12-16T15:58:15.342Z,39.38
2022-12-16T15:59:51.676Z,33.40
2022-12-16T16:01:19.119Z,36.22
2022-12-16T16:02:55.517Z,35.50
2022-12-16T16:04:24.283Z,34.97
2022-12-16T16:05:45.180Z,29.80
2022-12-16T16:07:11.380Z,37.92
2022-12-16T16:08:32.469Z,45.05
2022-12-16T16:09:55.739Z,39.00
2022-12-16T16:11:16.904Z,36.72
2022-12-16T16:12:39.563Z,34.92
2022-12-16T16:14:07.350Z,28.85
2022-12-16T16:15:33.789Z,37.00
2022-12-16T16:16:55.300Z,35.95
2022-12-16T16:18:20.163Z,32.95
2022-12-16T16:19:44.412Z,37.17
2022-12-16T16:21:05.757Z,36.97
2022-12-16T16:22:37.214Z,39.03
2022-12-16T16:23:58.296Z,35.03
2022-12-16T16:25:19.656Z,39.38
2022-12-16T16:26:44.739Z,35.97
2022-12-16T16:28:05.875Z,37.58
2022-12-16T16:29:29.611Z,49.47
2022-12-16T16:30:50.660Z,44.20
2022-12-16T16:32:11.987Z,40.15
2022-12-16T16:33:33.156Z,54.38
2022-12-16T16:34:54.748Z,71.60
2022-12-16T16:36:15.495Z,84.28
2022-12-16T16:37:38.217Z,93.93
2022-12-16T16:38:58.939Z,83.50
2022-12-16T16:40:20.102Z,71.47
2022-12-16T16:41:41.034Z,79.60
2022-12-16T16:43:01.989Z,77.93
2022-12-16T16:44:22.813Z,75.38
2022-12-16T16:45:43.478Z,74.30
2022-12-16T16:47:05.003Z,76.20
2022-12-16T16:48:31.354Z,81.57
2022-12-16T16:49:59.759Z,79.70
2022-12-16T16:51:22.681Z,73.88
2022-12-16T16:52:45.056Z,79.18
2022-12-16T16:54:05.766Z,104.32
2022-12-16T16:55:36.104Z,108.80
2022-12-16T16:56:57.171Z,95.93
2022-12-16T16:58:17.933Z,89.82
2022-12-16T16:59:42.472Z,82.45
2022-12-16T17:01:03.399Z,85.88
2022-12-16T17:02:41.232Z,75.93
2022-12-16T17:04:02.841Z,76.30
2022-12-16T17:05:24.604Z,69.28
2022-12-16T17:06:45.509Z,73.15
2022-12-16T17:08:06.176Z,73.18
2022-12-16T17:09:27.000Z,80.75
2022-12-16T17:10:47.657Z,73.40
2022-12-16T17:12:08.460Z,62.13
2022-12-16T17:13:29.622Z,61.88
2022-12-16T17:14:50.389Z,56.30
2022-12-16T17:16:11.185Z,63.28
2022-12-16T17:17:32.027Z,56.42
2022-12-16T17:18:52.963Z,62.88
2022-12-16T17:20:14.171Z,52.70